Terminal Aerodrome Forecast
Issued by NWS

Home | Current Version | Previous Version | Text Only | Print | Product List | Glossary On
Versions: 1 2 3 4 5 6 7 8 9 10 11 12 13 14 15 16 17 18 19 20 21 22 23 24 25 26 27 28
461
FTUS46 KSEW 190207 AAA
TAFSEA
TAF AMD
KSEA 190207Z 1902/2006 20015KT 5SM -RA BR SCT015 BKN035 OVC045
      TEMPO 1902/1905 3SM -RA BR BKN015
     FM190500 19012KT 4SM -RA BR BKN015 OVC020
     FM190900 18010KT P6SM -RA SCT015 OVC020
     FM191400 18008KT P6SM VCSH BKN020 OVC040
     FM191800 19010KT P6SM VCSH SCT025 BKN040=

USA.gov is the U.S. government's official web portal to all federal, state and local government web resources and services.